Time;durP1;ratioP1;P1;durP2;ratioP2;P2;SDS_P1;SDS_P2;PMS_P1;PMS_P2;Temp;Humidity;BMP_temperature;BMP_pressure;BME280_temperature;BME280_humidity;BME280_pressure;Samples;Min_cycle;Max_cycle;Signal;HPM_P1;HPM_P2
2021/10/25 00:00:51;;;;;;;2.60;1.40;;;;;;;7.23;65.73;101317.25;5067174;28;20209;-83
2021/10/25 00:03:17;;;;;;;2.70;1.83;;;;;;;7.19;65.94;101311.19;5069694;28;20702;-85
2021/10/25 00:05:44;;;;;;;2.63;1.80;;;;;;;7.18;66.37;101309.47;5069236;28;20563;-85
2021/10/25 00:08:13;;;;;;;2.53;1.80;;;;;;;7.15;66.19;101308.75;5069787;28;20204;-85
2021/10/25 00:10:40;;;;;;;2.87;1.57;;;;;;;7.13;66.30;101305.28;5066822;28;20205;-85
2021/10/25 00:13:07;;;;;;;3.13;1.60;;;;;;;7.10;66.22;101303.63;5075048;28;20225;-85
2021/10/25 00:15:34;;;;;;;1.90;1.70;;;;;;;7.08;66.65;101309.88;5064943;28;20202;-84
2021/10/25 00:18:01;;;;;;;2.97;1.80;;;;;;;7.05;66.82;101310.88;5077934;28;20233;-84
2021/10/25 00:20:28;;;;;;;2.90;1.90;;;;;;;7.02;66.48;101308.31;5071094;28;20205;-85
2021/10/25 00:22:55;;;;;;;2.97;1.60;;;;;;;7.01;66.73;101308.38;5064704;28;20228;-85
2021/10/25 00:25:21;;;;;;;2.27;1.43;;;;;;;6.97;66.65;101297.94;5078843;28;20209;-85
2021/10/25 00:27:48;;;;;;;3.00;1.80;;;;;;;6.93;66.90;101301.63;5067871;28;20211;-85
2021/10/25 00:30:15;;;;;;;3.70;1.90;;;;;;;6.90;66.82;101309.66;5072241;28;20201;-86
2021/10/25 00:32:43;;;;;;;3.47;1.73;;;;;;;6.86;67.02;101310.69;5075306;28;20220;-86
2021/10/25 00:35:10;;;;;;;5.60;2.23;;;;;;;6.81;66.99;101309.13;5071664;28;20216;-86
2021/10/25 00:37:37;;;;;;;2.70;1.80;;;;;;;6.76;67.05;101301.38;5070066;28;20258;-86
2021/10/25 00:40:05;;;;;;;5.50;2.20;;;;;;;6.71;67.41;101311.28;5075046;28;20209;-86
2021/10/25 00:42:32;;;;;;;4.37;1.77;;;;;;;6.67;67.10;101309.66;5074484;28;20589;-86
2021/10/25 00:44:59;;;;;;;3.47;1.50;;;;;;;6.63;67.54;101310.66;5069680;28;20620;-86
2021/10/25 00:47:26;;;;;;;6.23;2.10;;;;;;;6.58;67.64;101305.56;5080383;28;20200;-86
2021/10/25 00:49:54;;;;;;;4.07;1.90;;;;;;;6.55;67.17;101310.09;5069011;28;20578;-85
2021/10/25 00:52:20;;;;;;;3.47;2.00;;;;;;;6.50;67.37;101301.47;5068428;28;20204;-86
2021/10/25 00:54:47;;;;;;;4.07;1.93;;;;;;;6.46;67.93;101302.47;5067260;28;20210;-85
2021/10/25 00:57:14;;;;;;;3.40;1.90;;;;;;;6.40;68.31;101300.06;5067714;28;20227;-86
2021/10/25 00:59:41;;;;;;;2.90;1.70;;;;;;;6.38;68.57;101294.84;5063739;28;20232;-86
2021/10/25 01:02:07;;;;;;;3.17;1.80;;;;;;;6.35;68.52;101283.50;5065898;28;20700;-82
2021/10/25 01:04:34;;;;;;;2.93;2.10;;;;;;;6.34;69.31;101295.84;5077998;28;20201;-83
2021/10/25 01:07:03;;;;;;;6.63;2.37;;;;;;;6.34;68.96;101290.56;5071988;28;20205;-82
2021/10/25 01:09:31;;;;;;;4.13;1.87;;;;;;;6.35;68.89;101287.00;5069483;28;20219;-82
2021/10/25 01:11:57;;;;;;;3.30;1.97;;;;;;;6.34;69.05;101295.00;5063030;28;20205;-82
2021/10/25 01:14:24;;;;;;;3.10;1.97;;;;;;;6.35;69.01;101296.72;5076417;28;20618;-82
2021/10/25 01:16:51;;;;;;;4.30;1.80;;;;;;;6.38;69.49;101296.63;5075014;28;20217;-83
2021/10/25 01:19:17;;;;;;;2.10;1.83;;;;;;;6.41;69.57;101299.16;5077690;28;20205;-82
2021/10/25 01:21:45;;;;;;;3.93;1.80;;;;;;;6.43;69.61;101292.03;5072877;28;20202;-82
2021/10/25 01:24:12;;;;;;;4.33;2.30;;;;;;;6.46;69.66;101294.53;5072299;28;20315;-83
2021/10/25 01:26:38;;;;;;;2.40;1.63;;;;;;;6.50;69.62;101297.03;5065684;28;20200;-83
2021/10/25 01:29:06;;;;;;;4.30;1.93;;;;;;;6.54;69.85;101303.09;5076883;28;20216;-83
2021/10/25 01:31:33;;;;;;;2.53;1.80;;;;;;;6.52;69.41;101303.13;5073008;28;20259;-82
2021/10/25 01:34:00;;;;;;;2.40;2.00;;;;;;;6.49;69.08;101305.03;5075520;28;20229;-82
2021/10/25 01:36:27;;;;;;;3.00;2.00;;;;;;;6.45;69.48;101308.72;5075445;28;20207;-82
2021/10/25 01:38:55;;;;;;;3.33;2.00;;;;;;;6.39;69.28;101306.28;5084915;28;20236;-82
2021/10/25 01:41:22;;;;;;;3.10;1.90;;;;;;;6.35;68.79;101307.31;5071270;28;20229;-83
2021/10/25 01:43:48;;;;;;;5.37;2.33;;;;;;;6.27;69.13;101300.50;5074801;28;20575;-82
2021/10/25 01:46:15;;;;;;;3.17;1.93;;;;;;;6.22;69.04;101293.66;5068999;28;20291;-83
2021/10/25 01:48:42;;;;;;;2.93;2.00;;;;;;;6.18;68.83;101292.91;5070643;28;20204;-84
2021/10/25 01:51:08;;;;;;;3.30;1.97;;;;;;;6.12;69.13;101301.03;5074540;28;20589;-83
2021/10/25 01:53:35;;;;;;;4.70;1.97;;;;;;;6.09;69.29;101300.28;5066352;28;20223;-83
2021/10/25 01:56:03;;;;;;;5.90;2.00;;;;;;;6.04;69.39;101292.50;5071145;28;20211;-84
2021/10/25 01:58:30;;;;;;;2.93;2.10;;;;;;;5.99;69.38;101290.94;5069786;28;20221;-82
2021/10/25 02:00:57;;;;;;;2.07;1.80;;;;;;;5.94;69.62;101291.09;5072739;28;20670;-82
2021/10/25 02:03:24;;;;;;;5.70;2.20;;;;;;;5.89;69.80;101287.75;5072192;28;20518;-82
2021/10/25 02:05:50;;;;;;;3.43;2.13;;;;;;;5.83;69.89;101282.63;5067982;28;20196;-81
2021/10/25 02:08:17;;;;;;;6.33;2.50;;;;;;;5.79;69.75;101276.56;5065404;28;20198;-83
2021/10/25 02:10:44;;;;;;;2.00;1.77;;;;;;;5.74;69.97;101281.16;5065999;28;20269;-83
2021/10/25 02:13:15;;;;;;;3.57;2.00;;;;;;;5.71;70.13;101280.41;5071491;28;20239;-83
2021/10/25 02:15:43;;;;;;;3.93;2.20;;;;;;;5.67;70.18;101284.06;5074737;28;20201;-83
2021/10/25 02:18:10;;;;;;;3.97;2.07;;;;;;;5.62;70.14;101283.34;5070917;28;20702;-84
2021/10/25 02:20:36;;;;;;;2.27;2.07;;;;;;;5.57;70.51;101278.19;5071684;28;20200;-83
2021/10/25 02:23:03;;;;;;;2.00;1.80;;;;;;;5.53;70.89;101276.59;5083351;28;20231;-83
2021/10/25 02:25:30;;;;;;;5.80;2.40;;;;;;;5.50;70.86;101271.41;5059115;28;20236;-82
2021/10/25 02:27:57;;;;;;;2.47;2.27;;;;;;;5.46;70.96;101273.28;5070340;28;20292;-82
2021/10/25 02:30:25;;;;;;;4.63;2.23;;;;;;;5.42;71.20;101276.91;5066332;28;20198;-82
2021/10/25 02:32:51;;;;;;;3.53;2.20;;;;;;;5.39;71.49;101270.88;5059484;28;20500;-82
2021/10/25 02:35:18;;;;;;;4.37;2.83;;;;;;;5.35;71.54;101280.69;5057997;28;20301;-82
2021/10/25 02:37:45;;;;;;;3.83;2.50;;;;;;;5.32;71.85;101274.63;5070944;28;20311;-82
2021/10/25 02:40:12;;;;;;;2.77;2.20;;;;;;;5.29;72.10;101269.44;5067311;28;20201;-82
2021/10/25 02:42:42;;;;;;;4.90;2.03;;;;;;;5.25;71.95;101273.94;5065787;28;20216;-82
2021/10/25 02:45:09;;;;;;;4.27;2.10;;;;;;;5.22;72.23;101268.75;5066269;28;20207;-82
2021/10/25 02:47:37;;;;;;;4.07;2.30;;;;;;;5.18;72.48;101268.00;5065297;28;20558;-82
2021/10/25 02:50:05;;;;;;;2.40;1.97;;;;;;;5.14;72.43;101271.66;5066757;28;20207;-82
2021/10/25 02:52:31;;;;;;;3.23;1.80;;;;;;;5.11;72.60;101266.47;5067864;28;20289;-83
2021/10/25 02:54:58;;;;;;;2.13;1.93;;;;;;;5.07;72.84;101263.97;5064507;28;20269;-83
2021/10/25 02:57:25;;;;;;;4.40;2.10;;;;;;;5.03;72.91;101259.69;5057750;28;20229;-83
2021/10/25 02:59:51;;;;;;;4.27;1.90;;;;;;;5.00;73.12;101255.38;5066174;28;20668;-84
2021/10/25 03:02:18;;;;;;;4.53;2.20;;;;;;;4.98;73.16;101262.47;5062982;28;20291;-84
2021/10/25 03:04:46;;;;;;;4.07;1.97;;;;;;;4.97;73.45;101257.25;5073967;28;20201;-84
2021/10/25 03:07:12;;;;;;;3.73;2.23;;;;;;;4.94;73.46;101255.56;5078624;28;20213;-83
2021/10/25 03:09:40;;;;;;;2.87;1.90;;;;;;;4.92;73.64;101248.59;5072205;28;20299;-83
2021/10/25 03:12:07;;;;;;;4.30;2.30;;;;;;;4.92;73.62;101251.25;5065209;28;20205;-82
2021/10/25 03:14:34;;;;;;;3.87;2.13;;;;;;;4.88;73.73;101253.97;5075244;28;20205;-82
2021/10/25 03:17:00;;;;;;;3.27;2.23;;;;;;;4.84;73.61;101256.72;5076571;28;20208;-82
2021/10/25 03:19:27;;;;;;;3.83;2.27;;;;;;;4.79;73.36;101246.34;5078208;28;20205;-82
2021/10/25 03:21:55;;;;;;;3.83;2.20;;;;;;;4.72;73.79;101246.56;5066466;28;20244;-81
2021/10/25 03:24:22;;;;;;;3.90;2.37;;;;;;;4.66;73.44;101247.59;5078378;28;20233;-82
2021/10/25 03:26:48;;;;;;;2.87;2.10;;;;;;;4.61;73.63;101238.97;5078895;28;20300;-82
2021/10/25 03:29:16;;;;;;;3.50;2.63;;;;;;;4.59;74.24;101240.78;5076391;28;20204;-82
2021/10/25 03:31:42;;;;;;;2.77;2.13;;;;;;;4.54;74.03;101233.00;5067379;28;20214;-82
2021/10/25 03:34:09;;;;;;;3.93;2.33;;;;;;;4.50;73.85;101236.63;5070859;28;20314;-83
2021/10/25 03:36:37;;;;;;;4.30;2.20;;;;;;;4.44;73.26;101228.06;5063203;28;20201;-82
2021/10/25 03:39:06;;;;;;;4.93;2.30;;;;;;;4.35;73.57;101238.84;5066000;28;20237;-82
2021/10/25 03:41:36;;;;;;;3.13;1.83;;;;;;;4.28;74.00;101237.31;5067416;28;20200;-82
2021/10/25 03:44:07;;;;;;;3.03;2.20;;;;;;;4.21;74.36;101238.38;5071881;28;20236;-82
2021/10/25 03:46:38;;;;;;;4.27;3.23;;;;;;;4.15;74.14;101235.00;5078227;28;20208;-83
2021/10/25 03:49:09;;;;;;;2.80;2.07;;;;;;;4.12;74.41;101242.16;5077220;28;20201;-83
2021/10/25 03:51:38;;;;;;;3.67;2.60;;;;;;;4.07;74.55;101237.00;5068323;28;20292;-83
2021/10/25 03:54:19;;;;;;;5.43;2.40;;;;;;;4.08;75.58;101236.09;5072501;28;20634;-83
2021/10/25 03:57:08;;;;;;;6.23;2.57;;;;;;;4.09;75.33;101242.22;5068838;28;20213;-83
2021/10/25 04:02:39;;;;;;;5.60;2.30;;;;;;;4.09;75.88;101237.81;5075876;28;20208;-82
2021/10/25 04:27:28;;;;;;;6.30;3.57;;;;;;;4.00;76.10;101231.91;5081401;28;20243;-82
2021/10/25 04:30:01;;;;;;;6.80;4.03;;;;;;;3.97;76.05;101224.09;5069526;28;20300;-83
2021/10/25 04:32:28;;;;;;;6.13;4.10;;;;;;;3.95;76.82;101226.75;5072563;28;20232;-83
2021/10/25 04:34:54;;;;;;;8.13;4.40;;;;;;;3.93;76.41;101218.06;5061896;28;20214;-83
2021/10/25 04:37:21;;;;;;;9.67;5.10;;;;;;;3.92;76.93;101218.97;5073194;28;20213;-82
2021/10/25 04:39:47;;;;;;;8.53;4.13;;;;;;;3.93;77.04;101217.19;5073193;28;21432;-83
2021/10/25 04:42:16;;;;;;;10.80;4.50;;;;;;;3.93;77.41;101222.47;5076648;28;20197;-83
2021/10/25 04:44:45;;;;;;;10.60;4.00;;;;;;;3.92;77.02;101224.22;5077537;28;20212;-82
2021/10/25 04:47:12;;;;;;;7.43;3.57;;;;;;;3.96;77.62;101219.72;5069247;28;20655;-83
2021/10/25 04:49:39;;;;;;;3.40;2.73;;;;;;;3.97;77.67;101218.81;5082369;28;20199;-83
2021/10/25 04:52:09;;;;;;;3.30;2.20;;;;;;;3.90;77.73;101217.28;5077253;28;20616;-83
2021/10/25 04:54:36;;;;;;;6.60;3.17;;;;;;;3.79;76.74;101217.53;5075030;28;20232;-83
2021/10/25 04:57:03;;;;;;;3.90;2.70;;;;;;;3.68;76.93;101212.56;5074878;28;20215;-83
2021/10/25 04:59:30;;;;;;;5.20;2.80;;;;;;;3.59;76.75;101211.91;5061716;28;20717;-82
2021/10/25 05:01:58;;;;;;;4.87;3.00;;;;;;;3.53;77.34;101214.72;5069609;28;20209;-81
2021/10/25 05:04:25;;;;;;;3.33;2.77;;;;;;;3.48;76.80;101222.72;5075854;28;20228;-82
2021/10/25 05:06:52;;;;;;;4.83;3.10;;;;;;;3.43;77.59;101220.22;5076589;28;20273;-82
2021/10/25 05:09:18;;;;;;;7.93;3.23;;;;;;;3.41;77.89;101219.38;5064632;28;20746;-83
2021/10/25 05:11:45;;;;;;;4.57;3.00;;;;;;;3.39;77.43;101210.69;5064485;28;20207;-82
2021/10/25 05:14:12;;;;;;;6.17;3.20;;;;;;;3.39;77.27;101209.81;5064627;28;20235;-82
2021/10/25 05:16:45;;;;;;;3.40;3.10;;;;;;;3.39;78.27;101209.81;5071192;28;20197;-83
2021/10/25 05:19:13;;;;;;;5.47;2.87;;;;;;;3.39;78.28;101202.78;5080324;28;20662;-82
2021/10/25 05:21:39;;;;;;;5.40;2.93;;;;;;;3.39;77.53;101205.41;5069290;28;20231;-82
2021/10/25 05:24:06;;;;;;;5.97;3.30;;;;;;;3.38;78.36;101206.31;5065292;28;20221;-83
2021/10/25 05:26:33;;;;;;;5.57;3.00;;;;;;;3.38;78.10;101201.06;5072719;28;20200;-82
2021/10/25 05:29:00;;;;;;;5.43;2.90;;;;;;;3.37;78.13;101206.34;5074129;28;20569;-83
2021/10/25 05:31:26;;;;;;;5.07;3.63;;;;;;;3.37;78.62;101201.94;5070986;28;20595;-83
2021/10/25 05:33:53;;;;;;;4.30;3.13;;;;;;;3.36;78.62;101208.13;5062852;28;20298;-83
2021/10/25 05:36:21;;;;;;;4.83;3.50;;;;;;;3.35;78.47;101195.84;5078776;28;20197;-83
2021/10/25 05:38:47;;;;;;;5.60;3.60;;;;;;;3.34;78.83;101190.63;5080385;28;20224;-83
2021/10/25 05:41:14;;;;;;;6.73;3.40;;;;;;;3.34;78.36;101191.50;5073102;28;20231;-83
2021/10/25 05:43:41;;;;;;;4.53;3.73;;;;;;;3.32;78.85;101190.66;5073607;28;20221;-83
2021/10/25 05:46:08;;;;;;;4.37;2.93;;;;;;;3.31;78.70;101180.16;5066068;28;20591;-83
2021/10/25 05:48:34;;;;;;;3.73;3.27;;;;;;;3.31;78.11;101185.44;5070500;28;20198;-83
2021/10/25 05:51:01;;;;;;;4.80;3.63;;;;;;;3.30;78.85;101179.31;5076248;28;20225;-84
2021/10/25 05:53:29;;;;;;;5.67;3.57;;;;;;;3.29;78.36;101182.84;5073397;28;20216;-84
2021/10/25 05:55:56;;;;;;;4.97;3.63;;;;;;;3.27;78.33;101179.38;5071898;28;20205;-83
2021/10/25 05:58:23;;;;;;;4.93;3.33;;;;;;;3.28;79.05;101182.88;5066899;28;20232;-83
2021/10/25 06:00:53;;;;;;;6.47;4.00;;;;;;;3.25;78.54;101175.91;5071367;28;20229;-84
2021/10/25 06:03:23;;;;;;;6.37;4.60;;;;;;;3.24;78.59;101184.72;5069714;28;20212;-85
2021/10/25 06:05:50;;;;;;;4.67;3.60;;;;;;;3.25;78.27;101190.84;5065371;28;20204;-84
2021/10/25 06:08:18;;;;;;;7.50;4.53;;;;;;;3.25;78.48;101196.09;5067444;28;20202;-84
2021/10/25 06:10:47;;;;;;;6.67;3.97;;;;;;;3.25;78.73;101201.38;5061320;28;20209;-83
2021/10/25 06:13:21;;;;;;;6.00;4.50;;;;;;;3.26;79.02;101197.84;5069432;28;20227;-84
2021/10/25 06:15:56;;;;;;;10.70;5.17;;;;;;;3.25;79.77;101196.97;5064042;28;20208;-83
2021/10/25 06:18:24;;;;;;;10.07;5.63;;;;;;;3.28;79.16;101201.28;5061755;28;20271;-84
2021/10/25 06:20:51;;;;;;;7.57;4.57;;;;;;;3.29;79.15;101198.63;5063157;28;20699;-84
2021/10/25 06:23:21;;;;;;;5.83;4.13;;;;;;;3.30;79.93;101200.34;5066282;28;20233;-84
2021/10/25 06:25:52;;;;;;;7.33;4.43;;;;;;;3.30;79.57;101200.34;5065358;28;20199;-84
2021/10/25 06:28:19;;;;;;;6.87;4.70;;;;;;;3.32;79.72;101208.22;5069116;28;20607;-83
2021/10/25 06:30:54;;;;;;;6.37;3.87;;;;;;;3.32;79.81;101208.22;5063528;28;20227;-85
2021/10/25 06:33:20;;;;;;;8.23;4.47;;;;;;;3.32;79.86;101203.81;5062598;28;20625;-85
2021/10/25 06:35:56;;;;;;;8.90;4.93;;;;;;;3.36;80.07;101215.16;5071231;28;20208;-84
2021/10/25 06:38:25;;;;;;;5.50;4.13;;;;;;;3.36;79.88;101202.84;5068488;28;20224;-84
2021/10/25 06:40:52;;;;;;;8.33;4.83;;;;;;;3.39;80.22;101213.31;5066330;28;20205;-84
2021/10/25 06:43:21;;;;;;;9.37;5.30;;;;;;;3.40;80.64;101211.53;5062261;28;20236;-84
2021/10/25 06:45:54;;;;;;;9.73;5.07;;;;;;;3.40;80.28;101212.38;5062740;28;20212;-85
2021/10/25 06:48:22;;;;;;;5.60;3.47;;;;;;;3.40;80.27;101206.28;5061667;28;20289;-84
2021/10/25 06:50:49;;;;;;;4.80;3.73;;;;;;;3.37;79.79;101199.31;5061887;28;20284;-83
2021/10/25 06:53:17;;;;;;;6.83;4.40;;;;;;;3.35;80.10;101203.75;5071515;28;20648;-84
2021/10/25 06:55:45;;;;;;;6.37;4.30;;;;;;;3.35;79.98;101206.38;5074306;28;21986;-82
2021/10/25 06:58:13;;;;;;;8.37;4.63;;;;;;;3.36;80.53;101207.25;5069208;28;20375;-83
2021/10/25 07:00:40;;;;;;;6.67;4.60;;;;;;;3.36;80.64;101200.22;5074971;28;20304;-83
2021/10/25 07:03:11;;;;;;;8.53;5.00;;;;;;;3.39;80.87;101208.03;5066971;28;20303;-83
2021/10/25 07:05:38;;;;;;;9.63;6.00;;;;;;;3.42;80.80;101207.06;5074916;28;20204;-84
2021/10/25 07:08:06;;;;;;;8.13;5.50;;;;;;;3.47;81.09;101206.06;5067771;28;20631;-84
2021/10/25 07:10:33;;;;;;;7.87;6.00;;;;;;;3.54;81.55;101203.28;5070576;28;20213;-84
2021/10/25 07:13:00;;;;;;;9.73;5.73;;;;;;;3.61;82.05;101196.94;5070274;28;20256;-84
2021/10/25 07:15:33;;;;;;;8.83;5.57;;;;;;;3.70;82.51;101208.13;5068743;28;20668;-84
2021/10/25 07:18:06;;;;;;;5.50;5.00;;;;;;;3.78;82.18;101210.53;5065693;28;20209;-84
2021/10/25 07:26:47;;;;;;;7.63;5.40;;;;;;;4.03;82.98;101216.88;5062729;28;20596;-84
2021/10/25 07:59:48;;;;;;;8.17;5.80;;;;;;;4.75;85.16;101214.81;5070333;28;20304;-83
2021/10/25 08:07:51;;;;;;;11.03;7.00;;;;;;;5.05;85.46;101207.69;5068340;28;20189;-83
2021/10/25 08:10:21;;;;;;;12.97;6.60;;;;;;;5.13;85.46;101211.84;5066959;28;20214;-83
2021/10/25 08:12:52;;;;;;;13.60;7.40;;;;;;;5.23;85.60;101210.63;5070396;28;20291;-84
2021/10/25 08:15:25;;;;;;;8.83;6.80;;;;;;;5.34;85.61;101205.00;5066312;28;20907;-85
2021/10/25 08:17:54;;;;;;;10.13;7.20;;;;;;;5.47;85.67;101200.16;5068889;28;20193;-83
2021/10/25 08:20:23;;;;;;;8.57;5.67;;;;;;;5.59;85.83;101190.03;5064870;28;20221;-84
2021/10/25 08:22:49;;;;;;;7.43;5.03;;;;;;;5.78;85.63;101189.41;5068175;28;20221;-82
2021/10/25 08:25:16;;;;;;;5.57;4.73;;;;;;;5.98;86.06;101202.81;5071670;28;20201;-83
2021/10/25 08:27:43;;;;;;;5.50;4.63;;;;;;;6.16;85.82;101196.88;5070047;28;20617;-82
2021/10/25 08:30:18;;;;;;;7.90;5.40;;;;;;;6.32;86.20;101194.53;5066410;28;20205;-83
2021/10/25 08:33:00;;;;;;;7.40;4.50;;;;;;;6.46;85.38;101196.66;5069853;28;20246;-83
2021/10/25 08:40:59;;;;;;;7.17;4.70;;;;;;;6.83;84.87;101215.50;5066622;28;20208;-83
2021/10/25 08:43:26;;;;;;;7.47;5.17;;;;;;;6.92;84.55;101207.22;5075557;28;20248;-82
2021/10/25 08:45:56;;;;;;;5.80;4.10;;;;;;;7.06;84.43;101216.38;5090375;28;20216;-82
2021/10/25 08:48:24;;;;;;;4.50;4.10;;;;;;;7.19;84.14;101212.31;5078873;28;20232;-82
2021/10/25 08:50:52;;;;;;;5.40;4.33;;;;;;;7.35;83.85;101212.53;5092956;28;20220;-82
2021/10/25 08:53:19;;;;;;;6.33;4.30;;;;;;;7.50;84.00;101211.94;5086388;28;20574;-82
2021/10/25 08:55:50;;;;;;;5.23;4.20;;;;;;;7.64;83.35;101218.38;5084404;28;20241;-82
2021/10/25 08:58:16;;;;;;;6.70;4.30;;;;;;;7.80;82.70;101209.78;5076972;28;20205;-82
2021/10/25 09:00:46;;;;;;;6.13;4.50;;;;;;;7.93;81.92;101209.16;5076883;28;20788;-81
2021/10/25 09:03:12;;;;;;;4.60;3.97;;;;;;;8.03;81.25;101196.38;5076249;28;20582;-82
2021/10/25 09:05:40;;;;;;;6.47;3.97;;;;;;;8.11;80.48;101196.88;5077670;28;20193;-82
2021/10/25 09:08:10;;;;;;;6.60;4.20;;;;;;;8.19;80.44;101186.81;5078412;28;20204;-82
2021/10/25 09:10:39;;;;;;;5.50;4.03;;;;;;;8.28;79.48;101199.66;5083127;28;20206;-82
2021/10/25 09:13:08;;;;;;;6.00;3.83;;;;;;;8.39;79.31;101199.22;5082470;28;20220;-82
2021/10/25 09:15:37;;;;;;;4.83;3.80;;;;;;;8.54;79.05;101200.28;5073072;28;20206;-82
2021/10/25 09:18:07;;;;;;;6.90;4.13;;;;;;;8.69;79.21;101202.22;5068528;28;20208;-83
2021/10/25 09:20:43;;;;;;;5.90;4.47;;;;;;;8.86;78.42;101201.44;5061093;28;20225;-81
2021/10/25 09:23:13;;;;;;;4.33;3.50;;;;;;;9.01;77.21;101201.56;5066359;28;20615;-82
2021/10/25 09:25:40;;;;;;;5.53;3.07;;;;;;;9.17;77.06;101204.34;5063571;28;20535;-82
2021/10/25 09:28:27;;;;;;;4.37;2.70;;;;;;;9.35;76.55;101195.47;5064635;28;20201;-81
2021/10/25 09:30:57;;;;;;;3.53;2.27;;;;;;;9.52;74.79;101193.75;5063731;28;20553;-81
2021/10/25 09:33:26;;;;;;;4.57;2.03;;;;;;;9.65;73.83;101192.22;5070439;28;20252;-80
2021/10/25 09:35:57;;;;;;;3.67;2.43;;;;;;;9.81;74.04;101200.28;5061807;28;20553;-80
2021/10/25 09:38:32;;;;;;;5.67;2.70;;;;;;;9.97;73.51;101191.41;5061981;28;20617;-82
2021/10/25 09:49:39;;;;;;;4.97;2.53;;;;;;;10.59;70.05;101184.53;5046941;28;20202;-81
2021/10/25 09:52:08;;;;;;;3.40;2.13;;;;;;;10.68;68.86;101188.53;5064873;28;20212;-82
2021/10/25 09:54:37;;;;;;;3.63;2.50;;;;;;;10.76;68.34;101191.59;5071926;28;20204;-82
2021/10/25 09:57:09;;;;;;;4.73;2.30;;;;;;;10.79;67.81;101181.63;5069271;28;20287;-82
2021/10/25 09:59:48;;;;;;;4.87;2.10;;;;;;;10.89;67.34;101187.34;5071072;28;20221;-82
2021/10/25 10:02:16;;;;;;;2.93;2.60;;;;;;;11.00;66.81;101184.06;5064345;28;20619;-82
2021/10/25 10:04:46;;;;;;;4.60;2.23;;;;;;;11.06;66.93;101181.06;5070839;28;20202;-83
2021/10/25 10:07:16;;;;;;;3.53;2.40;;;;;;;11.18;66.60;101182.13;5074186;28;20221;-83
2021/10/25 10:09:45;;;;;;;3.83;2.47;;;;;;;11.23;66.27;101174.75;5074284;28;20193;-84
2021/10/25 10:12:17;;;;;;;4.40;2.83;;;;;;;11.27;65.75;101168.28;5074933;28;20205;-84
2021/10/25 10:14:44;;;;;;;2.43;2.20;;;;;;;11.30;65.16;101173.44;5072533;28;20283;-84
2021/10/25 10:17:12;;;;;;;2.70;2.00;;;;;;;11.33;65.26;101171.44;5067077;28;20288;-83
2021/10/25 10:19:41;;;;;;;2.87;2.33;;;;;;;11.35;65.01;101171.38;5065672;28;20224;-84
2021/10/25 10:22:08;;;;;;;3.10;1.70;;;;;;;11.38;65.46;101157.84;5072872;28;20205;-84
2021/10/25 10:24:35;;;;;;;4.77;2.30;;;;;;;11.40;64.77;101162.16;5063119;28;20227;-83
2021/10/25 10:27:06;;;;;;;3.57;2.13;;;;;;;11.41;64.46;101158.53;5070936;28;20726;-83
2021/10/25 10:29:37;;;;;;;3.13;2.23;;;;;;;11.42;64.53;101154.94;5073775;28;20287;-84
2021/10/25 10:32:06;;;;;;;3.50;2.10;;;;;;;11.45;64.63;101152.09;5069959;28;20560;-84
2021/10/25 10:34:42;;;;;;;4.43;2.40;;;;;;;11.49;64.74;101150.94;5071374;28;20216;-81
2021/10/25 10:37:22;;;;;;;4.50;2.43;;;;;;;11.57;64.77;101152.28;5068103;28;20284;-83
2021/10/25 10:39:59;;;;;;;4.03;2.03;;;;;;;11.65;64.62;101153.53;5070422;28;20715;-84
2021/10/25 10:42:28;;;;;;;5.07;2.70;;;;;;;11.73;64.53;101158.44;5067557;28;20198;-83
2021/10/25 10:45:00;;;;;;;3.73;2.60;;;;;;;11.79;64.23;101152.78;5068146;28;20229;-83
2021/10/25 10:47:28;;;;;;;3.30;2.20;;;;;;;11.83;64.16;101154.28;5063187;28;20217;-83
2021/10/25 10:49:56;;;;;;;3.97;2.40;;;;;;;11.87;64.22;101147.81;5070948;28;20297;-83
2021/10/25 10:52:32;;;;;;;5.17;2.70;;;;;;;11.94;64.21;101145.63;5078721;28;20297;-85
2021/10/25 10:55:03;;;;;;;2.90;2.40;;;;;;;12.04;64.00;101144.97;5068454;28;20208;-83
2021/10/25 11:00:44;;;;;;;4.23;2.63;;;;;;;12.14;63.68;101137.25;5071249;28;20276;-85
2021/10/25 11:03:17;;;;;;;3.80;1.90;;;;;;;12.18;63.60;101139.63;5062820;28;20245;-84
2021/10/25 11:05:45;;;;;;;4.53;2.80;;;;;;;12.25;63.49;101147.25;5076111;28;20200;-83
2021/10/25 11:08:16;;;;;;;3.77;2.17;;;;;;;12.29;63.44;101141.63;5086327;28;20272;-83
2021/10/25 11:10:44;;;;;;;3.67;2.10;;;;;;;12.35;63.25;101140.41;5068243;28;20194;-83
2021/10/25 11:13:16;;;;;;;3.70;2.80;;;;;;;12.42;63.34;101139.03;5062634;28;20231;-83
2021/10/25 11:16:00;;;;;;;4.57;3.07;;;;;;;12.52;62.72;101137.53;5067240;28;20554;-83
2021/10/25 11:18:29;;;;;;;3.57;2.03;;;;;;;12.58;62.67;101146.94;5068864;28;20201;-82
2021/10/25 11:21:07;;;;;;;6.03;3.73;;;;;;;12.65;62.66;101148.28;5067292;28;20685;-83
2021/10/25 11:23:40;;;;;;;6.23;3.60;;;;;;;12.71;62.38;101163.94;5065758;28;20220;-83
2021/10/25 11:26:11;;;;;;;5.63;3.00;;;;;;;12.75;62.34;101162.75;5066291;28;20692;-82
2021/10/25 11:28:39;;;;;;;4.23;2.53;;;;;;;12.79;61.99;101158.94;5063602;28;20197;-83
2021/10/25 11:31:06;;;;;;;7.13;3.93;;;;;;;12.81;62.06;101159.69;5063491;28;20556;-83
2021/10/25 11:33:33;;;;;;;6.13;3.83;;;;;;;12.84;61.82;101152.34;5071518;28;20225;-83
2021/10/25 11:36:00;;;;;;;3.03;2.30;;;;;;;12.87;61.23;101159.31;5063715;28;20215;-86
2021/10/25 11:38:27;;;;;;;3.90;2.57;;;;;;;12.88;60.75;101160.16;5072895;28;20202;-83
2021/10/25 11:40:54;;;;;;;4.47;2.40;;;;;;;12.83;60.63;101147.94;5074274;28;20224;-83
2021/10/25 11:43:29;;;;;;;3.13;2.63;;;;;;;12.86;60.58;101152.25;5067614;28;20233;-84
2021/10/25 11:45:57;;;;;;;4.97;2.60;;;;;;;12.86;61.04;101147.75;5073565;28;20228;-82
2021/10/25 11:48:32;;;;;;;3.83;2.27;;;;;;;12.90;60.95;101147.56;5080104;28;20197;-84
2021/10/25 11:51:00;;;;;;;5.37;2.43;;;;;;;12.93;60.52;101153.53;5078341;28;20196;-84
2021/10/25 11:53:28;;;;;;;3.57;2.20;;;;;;;12.94;60.42;101146.38;5069190;28;20225;-84
2021/10/25 11:55:55;;;;;;;3.80;2.70;;;;;;;12.94;60.14;101138.38;5065026;28;20229;-85
2021/10/25 11:58:23;;;;;;;4.40;2.70;;;;;;;12.95;60.33;101140.94;5072153;28;20212;-84
2021/10/25 12:00:54;;;;;;;3.73;2.13;;;;;;;12.95;59.80;101132.91;5070676;28;20232;-85
2021/10/25 12:03:27;;;;;;;4.83;2.47;;;;;;;12.96;59.92;101126.63;5076710;28;20201;-85
2021/10/25 12:05:53;;;;;;;2.80;2.13;;;;;;;12.98;60.26;101131.88;5070537;28;20342;-82
2021/10/25 12:08:21;;;;;;;5.87;3.47;;;;;;;13.02;59.78;101125.38;5071075;28;20197;-82
2021/10/25 12:10:49;;;;;;;5.13;2.77;;;;;;;13.07;59.62;101124.13;5072671;28;20227;-82
2021/10/25 12:13:17;;;;;;;7.53;2.90;;;;;;;13.09;59.97;101132.00;5072010;28;20222;-83
2021/10/25 12:15:54;;;;;;;3.43;2.23;;;;;;;13.12;59.98;101121.97;5071417;28;20574;-81
2021/10/25 12:18:22;;;;;;;5.47;2.50;;;;;;;13.16;59.67;101114.63;5069313;28;20676;-83
2021/10/25 12:20:50;;;;;;;3.77;2.53;;;;;;;13.17;59.18;101111.00;5070400;28;20587;-83
2021/10/25 12:23:19;;;;;;;3.13;1.90;;;;;;;13.20;59.35;101108.13;5075614;28;20233;-80
2021/10/25 12:25:54;;;;;;;2.87;2.13;;;;;;;13.22;58.57;101102.69;5071934;28;20213;-82
2021/10/25 12:28:21;;;;;;;5.37;2.80;;;;;;;13.21;58.43;101107.16;5075796;28;20207;-83
2021/10/25 12:30:50;;;;;;;3.17;2.47;;;;;;;13.24;58.35;101109.66;5072845;28;20208;-81
2021/10/25 12:33:21;;;;;;;3.20;2.17;;;;;;;13.26;58.39;101107.69;5070605;28;20221;-82
2021/10/25 12:35:49;;;;;;;4.03;2.33;;;;;;;13.26;58.22;101102.34;5063542;28;20205;-82
2021/10/25 12:38:17;;;;;;;3.03;2.20;;;;;;;13.27;57.65;101103.22;5067542;28;20201;-82
2021/10/25 12:40:48;;;;;;;4.07;2.90;;;;;;;13.26;57.44;101099.66;5066512;28;20702;-81
2021/10/25 12:43:16;;;;;;;4.53;2.83;;;;;;;13.25;57.46;101106.00;5075406;28;20591;-81
2021/10/25 12:45:44;;;;;;;4.57;3.07;;;;;;;13.28;57.65;101091.56;5071919;28;20220;-82
2021/10/25 12:48:13;;;;;;;5.07;3.00;;;;;;;13.32;57.01;101095.75;5066516;28;20655;-84
2021/10/25 12:50:44;;;;;;;6.53;2.80;;;;;;;13.30;57.14;101103.00;5069682;28;20225;-83
2021/10/25 12:53:13;;;;;;;3.53;2.40;;;;;;;13.29;57.28;101096.81;5065197;28;20217;-82
2021/10/25 12:55:42;;;;;;;3.87;3.17;;;;;;;13.28;56.71;101089.72;5069793;28;20219;-81
2021/10/25 12:58:10;;;;;;;4.33;2.93;;;;;;;13.24;57.16;101082.91;5080082;28;20200;-83
2021/10/25 13:00:37;;;;;;;3.47;3.17;;;;;;;13.23;57.34;101081.19;5078422;28;20241;-83
2021/10/25 13:03:10;;;;;;;6.77;3.23;;;;;;;13.23;57.54;101080.31;5075521;28;20593;-82